Time;durP1;ratioP1;P1;durP2;ratioP2;P2;SDS_P1;SDS_P2;PMS_P1;PMS_P2;Temp;Humidity;BMP_temperature;BMP_pressure;BME280_temperature;BME280_humidity;BME280_pressure;Samples;Min_cycle;Max_cycle;Signal;HPM_P1;HPM_P2
2023/05/09 00:00:36;;;;;;;3.53;1.92;;;;;;;6.50;82.51;100711.50;6287159;28;20135;-72
2023/05/09 00:03:36;;;;;;;1.52;1.40;;;;;;;6.43;81.88;100716.88;6269465;28;20057;-71
2023/05/09 00:06:37;;;;;;;2.25;1.38;;;;;;;6.41;82.44;100705.72;6278963;28;20044;-72
2023/05/09 00:09:38;;;;;;;1.70;1.13;;;;;;;6.39;82.57;100701.50;6293818;28;20098;-72
2023/05/09 00:12:39;;;;;;;1.98;1.52;;;;;;;6.41;83.13;100716.09;6285400;28;20049;-71
2023/05/09 00:15:40;;;;;;;4.05;1.75;;;;;;;6.47;82.71;100711.59;6270373;28;20048;-72
2023/05/09 00:18:41;;;;;;;1.48;1.23;;;;;;;6.31;83.27;100708.66;6294522;28;20053;-72
2023/05/09 00:21:42;;;;;;;3.37;1.77;;;;;;;6.32;83.60;100702.56;6295961;28;20111;-72
2023/05/09 00:24:43;;;;;;;1.75;1.33;;;;;;;6.25;83.80;100697.59;6276614;28;20527;-72
2023/05/09 00:27:44;;;;;;;1.77;1.35;;;;;;;6.35;84.16;100697.31;6286100;28;20056;-72
2023/05/09 00:30:44;;;;;;;1.00;0.90;;;;;;;6.22;84.86;100696.88;6294931;28;20053;-73
2023/05/09 00:33:45;;;;;;;1.55;1.25;;;;;;;6.18;84.11;100693.50;6292683;28;20396;-73
2023/05/09 00:36:46;;;;;;;1.25;1.10;;;;;;;6.20;84.54;100696.06;6292516;28;20048;-71
2023/05/09 00:39:47;;;;;;;2.90;1.27;;;;;;;6.10;84.58;100692.91;6293701;28;20699;-71
2023/05/09 00:42:48;;;;;;;1.92;1.42;;;;;;;6.17;85.87;100698.75;6287934;28;20040;-71
2023/05/09 00:45:49;;;;;;;3.03;1.42;;;;;;;6.02;85.52;100690.56;6277504;28;20511;-70
2023/05/09 00:48:51;;;;;;;2.80;1.60;;;;;;;6.16;85.37;100694.47;6270242;28;20045;-70
2023/05/09 00:51:53;;;;;;;1.87;1.00;;;;;;;6.00;85.91;100694.09;6267955;28;20110;-71
2023/05/09 00:54:55;;;;;;;2.28;1.42;;;;;;;5.92;86.18;100690.88;6262004;28;20462;-71
2023/05/09 00:57:56;;;;;;;2.22;1.25;;;;;;;5.93;86.18;100688.25;6266878;28;20045;-71
2023/05/09 01:01:01;;;;;;;2.15;1.33;;;;;;;5.98;86.51;100693.31;6272116;28;20053;-71
2023/05/09 01:04:01;;;;;;;1.52;1.15;;;;;;;5.93;86.69;100690.84;6294968;28;20143;-71
2023/05/09 01:07:22;;;;;;;2.33;1.15;;;;;;;5.80;87.35;100682.59;6294862;28;20044;-72
2023/05/09 01:10:41;;;;;;;2.45;1.92;;;;;;;5.80;88.30;100676.56;6294878;28;20106;-72
2023/05/09 01:14:13;;;;;;;1.95;1.38;;;;;;;5.84;88.27;100684.19;6293808;28;20055;-72
2023/05/09 01:17:40;;;;;;;2.75;1.85;;;;;;;5.85;88.56;100680.72;6293841;28;20048;-70
2023/05/09 01:20:45;;;;;;;3.17;1.27;;;;;;;5.82;87.98;100692.91;6293067;28;20396;-70
2023/05/09 01:23:59;;;;;;;3.63;1.60;;;;;;;5.80;88.14;100692.94;6270232;28;20044;-71
2023/05/09 01:27:23;;;;;;;1.65;0.85;;;;;;;5.81;88.43;100692.06;6266212;28;20049;-71
2023/05/09 01:30:26;;;;;;;2.15;1.20;;;;;;;5.72;88.78;100684.56;6276015;28;20056;-71
2023/05/09 01:33:31;;;;;;;1.15;0.93;;;;;;;5.77;88.98;100681.84;6290520;28;20410;-71
2023/05/09 01:36:35;;;;;;;1.70;0.73;;;;;;;5.80;88.88;100674.81;6276459;28;20053;-70
2023/05/09 01:39:40;;;;;;;1.38;1.17;;;;;;;5.71;88.78;100676.88;6288809;28;20048;-71
2023/05/09 01:42:57;;;;;;;7.32;0.82;;;;;;;5.70;90.22;100673.41;6292432;28;20056;-70
2023/05/09 01:45:58;;;;;;;1.00;0.70;;;;;;;5.65;89.74;100675.31;6278632;28;20059;-70
2023/05/09 01:49:01;;;;;;;2.22;1.40;;;;;;;5.71;90.19;100675.13;6271675;28;20057;-71
2023/05/09 01:52:07;;;;;;;1.65;1.10;;;;;;;5.70;90.06;100682.91;6293007;28;20055;-72
2023/05/09 01:55:09;;;;;;;1.50;1.23;;;;;;;5.63;89.94;100666.75;6293350;28;20104;-71
2023/05/09 01:58:11;;;;;;;1.75;1.38;;;;;;;5.60;91.22;100675.44;6293131;28;20044;-72
2023/05/09 02:01:13;;;;;;;1.40;1.25;;;;;;;5.71;90.73;100675.13;6287030;28;20415;-71
2023/05/09 02:04:16;;;;;;;0.80;0.80;;;;;;;5.68;89.74;100664.00;6290372;28;20418;-72
2023/05/09 02:07:17;;;;;;;1.45;0.80;;;;;;;5.71;90.58;100672.53;6294341;28;20044;-72
2023/05/09 02:10:20;;;;;;;1.05;0.85;;;;;;;5.70;90.75;100664.81;6264480;28;20049;-72
2023/05/09 02:13:20;;;;;;;1.30;1.10;;;;;;;5.75;90.37;100676.72;6260896;28;20049;-72
2023/05/09 02:16:21;;;;;;;3.60;1.15;;;;;;;5.71;90.12;100669.94;6261188;28;20045;-70
2023/05/09 02:19:22;;;;;;;1.27;0.93;;;;;;;5.72;89.86;100666.44;6257308;28;20324;-72
2023/05/09 02:22:23;;;;;;;1.88;1.58;;;;;;;5.68;90.65;100669.19;6261696;28;20052;-72
2023/05/09 02:25:24;;;;;;;1.50;0.90;;;;;;;5.61;90.96;100663.34;6267664;28;20396;-72
2023/05/09 02:28:26;;;;;;;1.85;1.15;;;;;;;5.60;91.06;100659.91;6263061;28;20044;-72
2023/05/09 02:31:29;;;;;;;1.48;0.90;;;;;;;5.65;91.07;100657.19;6317055;28;20102;-72
2023/05/09 02:34:31;;;;;;;1.30;1.00;;;;;;;5.62;91.28;100647.78;6285960;28;20475;-71
2023/05/09 02:37:32;;;;;;;1.23;0.88;;;;;;;5.67;91.05;100655.38;6264649;28;20403;-71
2023/05/09 02:40:33;;;;;;;2.60;1.27;;;;;;;5.68;91.11;100651.88;6267529;28;20154;-72
2023/05/09 02:43:34;;;;;;;1.48;1.17;;;;;;;5.72;90.65;100652.66;6272089;28;20147;-72
2023/05/09 02:46:34;;;;;;;5.22;1.42;;;;;;;5.65;90.99;100645.06;6263289;28;20053;-72
2023/05/09 02:49:35;;;;;;;1.50;0.93;;;;;;;5.76;90.28;100655.09;6269035;28;20041;-72
2023/05/09 02:52:36;;;;;;;1.67;1.15;;;;;;;5.73;91.17;100650.03;6272840;28;20411;-72
2023/05/09 02:55:37;;;;;;;1.65;0.90;;;;;;;5.68;91.35;100651.88;6282505;28;20167;-73
2023/05/09 02:58:40;;;;;;;2.00;0.88;;;;;;;5.65;90.78;100647.66;6271618;28;20412;-72
2023/05/09 03:01:41;;;;;;;0.57;0.57;;;;;;;5.71;91.02;100653.56;6283179;28;20187;-72
2023/05/09 03:04:42;;;;;;;1.33;1.10;;;;;;;5.71;90.58;100659.56;6275120;28;20045;-72
2023/05/09 03:07:43;;;;;;;10.25;2.10;;;;;;;5.69;90.92;100657.94;6300198;28;20048;-71
2023/05/09 03:10:44;;;;;;;1.30;1.13;;;;;;;5.81;89.77;100652.38;6271523;28;20057;-72
2023/05/09 03:13:45;;;;;;;2.78;1.40;;;;;;;5.78;89.05;100640.34;6269472;28;20052;-72
2023/05/09 03:16:45;;;;;;;2.55;1.77;;;;;;;5.78;90.19;100649.88;6265462;28;20111;-71
2023/05/09 03:19:49;;;;;;;3.65;2.90;;;;;;;5.92;89.27;100658.03;6271767;28;20102;-71
2023/05/09 03:22:49;;;;;;;2.78;1.10;;;;;;;5.81;89.01;100652.38;6278109;28;20130;-71
2023/05/09 03:25:50;;;;;;;0.60;0.60;;;;;;;5.89;89.06;100665.06;6280012;28;20052;-71
2023/05/09 03:28:51;;;;;;;0.52;0.50;;;;;;;5.93;88.36;100669.25;6272301;28;20045;-72
2023/05/09 03:31:52;;;;;;;0.60;0.60;;;;;;;5.97;88.23;100663.09;6275022;28;20580;-72
2023/05/09 03:34:53;;;;;;;2.42;1.00;;;;;;;5.99;88.08;100671.69;6271753;28;20590;-72
2023/05/09 03:37:54;;;;;;;1.45;1.20;;;;;;;5.99;88.00;100666.50;6277626;28;20527;-72
2023/05/09 03:40:55;;;;;;;0.95;0.57;;;;;;;6.01;87.52;100675.94;6270465;28;20055;-71
2023/05/09 03:43:56;;;;;;;2.00;1.40;;;;;;;6.11;87.92;100670.44;6282361;28;20048;-71
2023/05/09 03:46:56;;;;;;;1.42;1.02;;;;;;;6.08;87.57;100676.56;6261353;28;20053;-71
2023/05/09 03:49:59;;;;;;;0.90;0.85;;;;;;;6.15;88.31;100683.25;6271886;28;20052;-71
2023/05/09 03:53:03;;;;;;;2.05;0.65;;;;;;;6.20;87.67;100681.34;6271080;28;20064;-73
2023/05/09 03:56:05;;;;;;;1.55;1.30;;;;;;;6.27;86.70;100686.34;6275522;28;20136;-73
2023/05/09 03:59:06;;;;;;;1.00;0.80;;;;;;;6.35;85.46;100689.53;6271719;28;20049;-72
2023/05/09 04:02:09;;;;;;;0.35;0.35;;;;;;;6.39;84.63;100693.72;6283378;28;20094;-71
2023/05/09 04:05:10;;;;;;;1.00;0.85;;;;;;;6.53;84.79;100694.09;6295159;28;20056;-70
2023/05/09 04:08:11;;;;;;;1.30;0.70;;;;;;;6.53;83.85;100681.13;6285558;28;20045;-70
2023/05/09 04:11:12;;;;;;;1.55;0.95;;;;;;;6.69;83.92;100690.97;6290651;28;20097;-70
2023/05/09 04:14:13;;;;;;;0.52;0.50;;;;;;;6.76;nan;100690.69;6263541;28;20053;-71
2023/05/09 04:17:13;;;;;;;0.80;0.80;;;;;;;6.78;82.38;100688.06;6278561;28;20474;-71
2023/05/09 04:20:14;;;;;;;2.67;0.95;;;;;;;6.93;81.32;100690.09;6294747;28;20422;-71
2023/05/09 04:23:17;;;;;;;0.25;0.25;;;;;;;7.01;81.08;100690.66;6295511;28;20229;-71
2023/05/09 04:26:18;;;;;;;1.08;0.70;;;;;;;7.08;81.68;100688.69;6296012;28;20648;-72
2023/05/09 04:29:19;;;;;;;0.85;0.73;;;;;;;7.04;82.14;100698.34;6296037;28;20040;-72
2023/05/09 04:32:22;;;;;;;0.77;0.55;;;;;;;7.13;81.66;100686.78;6295700;28;20078;-72
2023/05/09 04:35:22;;;;;;;0.90;0.52;;;;;;;7.18;80.24;100687.44;6295750;28;20059;-72
2023/05/09 04:38:23;;;;;;;0.63;0.47;;;;;;;7.34;80.05;100689.50;6295588;28;20052;-72
2023/05/09 04:41:24;;;;;;;1.38;0.60;;;;;;;7.41;80.78;100690.94;6295655;28;20052;-72
2023/05/09 04:44:25;;;;;;;0.75;0.45;;;;;;;7.46;79.95;100689.88;6295453;28;20056;-72
2023/05/09 04:47:28;;;;;;;1.15;0.70;;;;;;;7.61;78.95;100687.59;6273664;28;20045;-71
2023/05/09 04:50:30;;;;;;;0.55;0.43;;;;;;;7.67;78.45;100688.19;6271296;28;20052;-71
2023/05/09 04:53:30;;;;;;;3.88;0.70;;;;;;;7.88;79.08;100693.47;6283676;28;20263;-73
2023/05/09 04:56:31;;;;;;;1.02;0.57;;;;;;;8.03;76.21;100690.25;6263365;28;20056;-73
2023/05/09 04:59:32;;;;;;;0.20;0.20;;;;;;;8.23;76.53;100686.00;6257543;28;20087;-73
2023/05/09 05:02:33;;;;;;;0.38;0.38;;;;;;;8.25;74.94;100691.97;6284055;28;20049;-72
2023/05/09 05:05:34;;;;;;;0.30;0.20;;;;;;;8.46;74.04;100685.94;6269498;28;20505;-72
2023/05/09 05:08:34;;;;;;;0.50;0.38;;;;;;;8.61;71.98;100684.44;6270247;28;20067;-70
2023/05/09 05:11:35;;;;;;;0.40;0.40;;;;;;;8.77;72.04;100673.34;6286832;28;20045;-71
2023/05/09 05:14:36;;;;;;;0.38;0.38;;;;;;;8.90;70.41;100686.69;6293584;28;20040;-71
2023/05/09 05:17:37;;;;;;;0.90;0.50;;;;;;;9.07;69.89;100692.81;6287774;28;20049;-71
2023/05/09 05:20:40;;;;;;;2.25;0.50;;;;;;;9.19;69.34;100677.56;6268831;28;20469;-72
2023/05/09 05:23:41;;;;;;;0.80;0.40;;;;;;;9.33;67.38;100677.78;6267049;28;20049;-71
2023/05/09 05:26:41;;;;;;;0.73;0.50;;;;;;;9.52;67.79;100685.59;6253592;28;20137;-72
2023/05/09 05:29:43;;;;;;;0.70;0.57;;;;;;;9.75;67.90;100688.88;6265869;28;20059;-72
2023/05/09 05:32:43;;;;;;;0.50;0.47;;;;;;;9.87;67.81;100688.28;6283184;28;20048;-72
2023/05/09 05:35:44;;;;;;;0.80;0.60;;;;;;;9.97;66.34;100681.72;6287315;28;20055;-71
2023/05/09 05:38:45;;;;;;;0.77;0.47;;;;;;;10.11;64.72;100682.78;6277650;28;20052;-72
2023/05/09 05:41:46;;;;;;;0.52;0.43;;;;;;;10.34;65.64;100694.75;6294687;28;20051;-72
2023/05/09 05:44:46;;;;;;;0.75;0.65;;;;;;;10.31;63.38;100679.25;6291339;28;20107;-72
2023/05/09 05:47:47;;;;;;;0.88;0.52;;;;;;;10.59;64.56;100700.41;6290724;28;20056;-73
2023/05/09 05:50:48;;;;;;;1.17;0.50;;;;;;;10.61;62.94;100687.31;6273585;28;20049;-72
2023/05/09 05:53:49;;;;;;;4.43;0.52;;;;;;;10.82;63.99;100685.34;6268133;28;20113;-71
2023/05/09 05:56:50;;;;;;;0.45;0.45;;;;;;;10.98;62.56;100693.22;6268336;28;20060;-71
2023/05/09 05:59:50;;;;;;;0.95;0.57;;;;;;;10.94;61.64;100692.53;6267816;28;20045;-72
2023/05/09 06:02:51;;;;;;;4.32;0.63;;;;;;;11.19;61.50;100684.25;6264303;28;20049;-71
2023/05/09 06:05:52;;;;;;;0.38;0.38;;;;;;;11.16;59.96;100687.03;6269140;28;20487;-70
2023/05/09 06:08:54;;;;;;;0.50;0.45;;;;;;;11.38;60.05;100686.69;6268270;28;20045;-71
2023/05/09 06:11:55;;;;;;;0.40;0.40;;;;;;;11.59;59.32;100694.28;6286826;28;20052;-71
2023/05/09 06:14:56;;;;;;;0.88;0.60;;;;;;;11.46;58.16;100687.13;6285018;28;20056;-71
2023/05/09 06:17:56;;;;;;;0.68;0.40;;;;;;;11.70;60.04;100694.56;6272209;28;20044;-70
2023/05/09 06:20:57;;;;;;;0.57;0.40;;;;;;;11.76;56.88;100688.16;6273800;28;20049;-70
2023/05/09 06:23:58;;;;;;;0.90;0.63;;;;;;;12.03;57.91;100686.63;6283800;28;20048;-71
2023/05/09 06:27:03;;;;;;;0.70;0.50;;;;;;;12.30;58.37;100688.59;6296419;28;20052;-71
2023/05/09 06:30:05;;;;;;;0.60;0.32;;;;;;;12.29;57.46;100679.03;6297318;28;20465;-71
2023/05/09 06:33:06;;;;;;;0.88;0.60;;;;;;;12.48;57.09;100671.81;6297285;28;20538;-71
2023/05/09 06:36:10;;;;;;;2.08;0.60;;;;;;;12.53;55.15;100678.53;6285292;28;20053;-70
2023/05/09 06:39:11;;;;;;;0.73;0.50;;;;;;;12.70;56.73;100678.38;6272132;28;20049;-70
2023/05/09 06:42:11;;;;;;;0.50;0.50;;;;;;;12.87;55.92;100680.81;6273958;28;20052;-72
2023/05/09 06:45:13;;;;;;;0.63;0.40;;;;;;;13.06;54.78;100680.53;6272693;28;20137;-72
2023/05/09 06:48:13;;;;;;;0.63;0.63;;;;;;;13.21;54.32;100675.28;6271981;28;20049;-71
2023/05/09 06:51:15;;;;;;;0.38;0.38;;;;;;;13.42;54.36;100689.69;6273434;28;20064;-70
2023/05/09 06:54:18;;;;;;;0.40;0.40;;;;;;;13.59;54.81;100682.53;6272113;28;20057;-71
2023/05/09 06:57:19;;;;;;;0.57;0.57;;;;;;;13.96;54.50;100688.91;6272105;28;20266;-72
2023/05/09 07:00:20;;;;;;;0.70;0.50;;;;;;;14.05;53.57;100688.28;6256702;28;20053;-72
2023/05/09 07:03:21;;;;;;;0.93;0.60;;;;;;;14.02;51.94;100678.00;6270859;28;20552;-72
2023/05/09 07:06:21;;;;;;;0.65;0.43;;;;;;;14.13;52.34;100673.84;6271230;28;20049;-71
2023/05/09 07:09:27;;;;;;;3.80;0.60;;;;;;;14.22;51.50;100686.34;6261898;28;20128;-72
2023/05/09 07:12:30;;;;;;;0.60;0.60;;;;;;;14.48;52.62;100679.38;6273280;28;20057;-73
2023/05/09 07:15:31;;;;;;;0.45;0.45;;;;;;;14.58;51.32;100679.59;6275972;28;20512;-72
2023/05/09 07:18:32;;;;;;;0.73;0.50;;;;;;;14.90;51.68;100685.28;6275165;28;20041;-72
2023/05/09 07:21:33;;;;;;;0.57;0.57;;;;;;;15.01;50.98;100676.63;6292398;28;20347;-71
2023/05/09 07:24:33;;;;;;;0.55;0.52;;;;;;;15.15;49.22;100681.78;6272822;28;20060;-71
2023/05/09 07:27:35;;;;;;;0.70;0.52;;;;;;;14.74;48.95;100672.34;6271458;28;20053;-71
2023/05/09 07:30:39;;;;;;;1.02;0.68;;;;;;;14.90;48.72;100672.13;6281917;28;20094;-71
2023/05/09 07:33:40;;;;;;;0.50;0.40;;;;;;;15.51;50.42;100677.50;6297425;28;20410;-71
2023/05/09 07:36:41;;;;;;;0.70;0.50;;;;;;;15.27;49.33;100672.19;6297911;28;20052;-71
2023/05/09 07:39:41;;;;;;;1.10;0.85;;;;;;;15.08;50.41;100677.91;6297253;28;20400;-70
2023/05/09 07:42:48;;;;;;;0.80;0.80;;;;;;;15.28;50.82;100666.00;6297537;28;20048;-72
2023/05/09 07:45:49;;;;;;;0.70;0.50;;;;;;;15.09;48.79;100663.81;6291600;28;20090;-71
2023/05/09 07:48:52;;;;;;;1.50;0.70;;;;;;;15.23;49.72;100674.19;6289867;28;20045;-71
2023/05/09 07:51:52;;;;;;;2.05;0.65;;;;;;;15.52;48.50;100677.41;6272068;28;20457;-72
2023/05/09 07:54:53;;;;;;;0.60;0.60;;;;;;;16.07;50.85;100672.53;6292563;28;20056;-71
2023/05/09 07:57:54;;;;;;;0.77;0.77;;;;;;;16.02;47.17;100671.19;6274882;28;20045;-71
2023/05/09 08:00:55;;;;;;;0.70;0.60;;;;;;;16.38;48.39;100672.03;6272246;28;20114;-71
2023/05/09 08:03:56;;;;;;;0.77;0.63;;;;;;;16.25;47.28;100659.81;6295719;28;20053;-71
2023/05/09 08:06:58;;;;;;;0.77;0.60;;;;;;;16.60;47.53;100671.25;6290700;28;20084;-71
2023/05/09 08:10:01;;;;;;;1.75;0.77;;;;;;;16.72;46.36;100662.41;6271980;28;20049;-71
2023/05/09 08:13:02;;;;;;;0.73;0.57;;;;;;;16.48;44.19;100662.50;6270233;28;20048;-71
2023/05/09 08:16:03;;;;;;;4.93;0.70;;;;;;;16.65;46.82;100664.66;6265204;28;20044;-71
2023/05/09 08:19:03;;;;;;;0.75;0.70;;;;;;;16.86;46.18;100650.81;6256974;28;20503;-70
2023/05/09 08:22:04;;;;;;;2.53;1.10;;;;;;;16.63;46.64;100647.31;6283909;28;20052;-71
2023/05/09 08:25:07;;;;;;;0.68;0.68;;;;;;;16.88;45.55;100655.03;6271095;28;20494;-71
2023/05/09 08:28:07;;;;;;;1.38;0.88;;;;;;;16.79;42.80;100660.97;6309223;28;20114;-71
2023/05/09 08:31:08;;;;;;;1.15;0.70;;;;;;;17.04;46.42;100657.28;6270358;28;20049;-71
2023/05/09 08:34:09;;;;;;;1.30;0.95;;;;;;;17.12;44.31;100662.78;6282763;28;20051;-72
2023/05/09 08:37:10;;;;;;;0.60;0.60;;;;;;;17.39;44.20;100653.66;6277181;28;20053;-72
2023/05/09 08:40:11;;;;;;;1.40;0.85;;;;;;;17.53;47.18;100668.38;6294289;28;20052;-73
2023/05/09 08:43:14;;;;;;;0.55;0.55;;;;;;;17.32;43.35;100653.31;6276926;28;20662;-70
2023/05/09 08:46:16;;;;;;;0.60;0.60;;;;;;;17.60;47.48;100656.34;6291288;28;20525;-71
2023/05/09 08:49:19;;;;;;;1.08;0.80;;;;;;;17.94;42.93;100655.44;6275344;28;20148;-71
2023/05/09 08:52:20;;;;;;;0.70;0.52;;;;;;;18.02;42.04;100647.72;6269884;28;20060;-72
2023/05/09 08:55:21;;;;;;;1.02;0.50;;;;;;;18.29;43.77;100650.69;6275491;28;20055;-71
2023/05/09 08:58:25;;;;;;;0.98;0.68;;;;;;;18.51;42.06;100641.81;6269469;28;20045;-71
2023/05/09 09:01:26;;;;;;;0.63;0.63;;;;;;;18.76;45.37;100646.78;6289706;28;20048;-71
2023/05/09 09:04:27;;;;;;;1.10;0.80;;;;;;;18.21;41.18;100637.28;6270134;28;20060;-70
2023/05/09 09:07:29;;;;;;;0.80;0.77;;;;;;;18.29;42.37;100634.00;6246780;28;20435;-71
2023/05/09 09:10:32;;;;;;;0.60;0.60;;;;;;;18.15;40.90;100640.44;6266134;28;20403;-72
2023/05/09 09:13:37;;;;;;;0.55;0.55;;;;;;;18.55;44.38;100634.44;6281939;28;20053;-72
2023/05/09 09:16:42;;;;;;;1.15;0.75;;;;;;;18.31;40.96;100637.38;6255021;28;20049;-72
2023/05/09 09:19:44;;;;;;;2.13;0.73;;;;;;;18.71;44.43;100628.66;6256461;28;20041;-71
2023/05/09 09:22:47;;;;;;;1.60;0.93;;;;;;;18.64;40.99;100638.13;6268961;28;20119;-72
2023/05/09 09:25:56;;;;;;;1.05;0.80;;;;;;;18.94;42.27;100634.63;6270252;28;20509;-72
2023/05/09 09:28:57;;;;;;;0.90;0.80;;;;;;;19.10;41.95;100631.50;6269893;28;20055;-72
2023/05/09 09:32:01;;;;;;;0.95;0.65;;;;;;;19.24;41.33;100638.22;6269889;28;20511;-72
2023/05/09 09:35:06;;;;;;;0.88;0.80;;;;;;;18.32;39.86;100628.47;6263713;28;20442;-72
2023/05/09 09:38:09;;;;;;;0.80;0.80;;;;;;;18.46;44.01;100641.34;6247099;28;20088;-72
2023/05/09 09:41:11;;;;;;;2.85;0.90;;;;;;;19.28;42.57;100651.03;6259885;28;20105;-72
2023/05/09 09:44:13;;;;;;;1.42;0.77;;;;;;;19.64;40.71;100646.09;6282844;28;20061;-72
2023/05/09 09:47:14;;;;;;;0.75;0.68;;;;;;;19.70;42.84;100642.91;6259484;28;20049;-73
2023/05/09 09:50:21;;;;;;;1.00;0.70;;;;;;;19.90;40.08;100637.63;6268394;28;20055;-72
2023/05/09 09:53:25;;;;;;;1.17;0.80;;;;;;;19.62;40.46;100634.81;6270550;28;20045;-72
2023/05/09 09:56:45;;;;;;;0.80;0.65;;;;;;;19.73;38.33;100647.94;6270425;28;20082;-72
2023/05/09 09:59:57;;;;;;;1.30;0.77;;;;;;;20.09;39.63;100629.66;6270080;28;20049;-72
2023/05/09 10:02:59;;;;;;;0.70;0.70;;;;;;;20.77;39.88;100641.13;6286177;28;20148;-72
2023/05/09 10:06:02;;;;;;;0.65;0.60;;;;;;;20.83;39.67;100630.75;6270546;28;20055;-72
2023/05/09 10:09:03;;;;;;;0.60;0.60;;;;;;;19.01;37.46;100625.22;6271389;28;20085;-71
2023/05/09 10:12:06;;;;;;;0.70;0.60;;;;;;;19.36;37.74;100620.44;6292447;28;20052;-72
2023/05/09 10:15:11;;;;;;;1.15;0.90;;;;;;;19.58;39.23;100627.25;6284348;28;20041;-71
2023/05/09 10:18:18;;;;;;;0.85;0.80;;;;;;;19.84;37.39;100617.00;6283193;28;20052;-72
2023/05/09 10:21:19;;;;;;;0.93;0.70;;;;;;;20.63;40.66;100623.84;6279028;28;20052;-73
2023/05/09 10:24:33;;;;;;;0.97;0.53;;;;;;;20.90;39.17;100617.75;6268000;28;20609;-73
2023/05/09 10:27:37;;;;;;;4.60;0.60;;;;;;;19.93;39.35;100608.19;6287039;28;20128;-73
2023/05/09 10:31:10;;;;;;;0.77;0.73;;;;;;;20.09;38.49;100602.34;6293596;28;20053;-73
2023/05/09 10:34:11;;;;;;;4.32;0.68;;;;;;;19.39;39.68;100597.16;6292094;28;20056;-72
2023/05/09 10:37:14;;;;;;;0.60;0.60;;;;;;;18.16;38.57;100601.66;6268073;28;20136;-73
2023/05/09 10:40:20;;;;;;;2.63;0.88;;;;;;;18.56;41.28;100612.34;6257973;28;20430;-73
2023/05/09 10:43:23;;;;;;;2.33;1.05;;;;;;;19.78;42.73;100606.97;6259677;28;20052;-72
2023/05/09 10:46:26;;;;;;;1.10;0.90;;;;;;;20.40;37.98;100610.91;6268510;28;20419;-72
2023/05/09 10:49:27;;;;;;;0.73;0.73;;;;;;;21.13;35.74;100604.94;6267582;28;20056;-72
2023/05/09 10:52:34;;;;;;;0.80;0.80;;;;;;;21.83;40.05;100613.09;6267989;28;20071;-72
2023/05/09 10:55:49;;;;;;;1.15;0.80;;;;;;;21.59;35.83;100597.78;6268903;28;20053;-72
2023/05/09 10:58:50;;;;;;;0.57;0.57;;;;;;;21.06;38.55;100606.50;6267586;28;20479;-71
2023/05/09 11:01:59;;;;;;;1.03;0.73;;;;;;;20.06;38.61;100603.47;6267562;28;20045;-72
2023/05/09 11:05:17;;;;;;;2.13;0.98;;;;;;;19.80;40.86;100599.72;6273021;28;20057;-71
2023/05/09 11:08:19;;;;;;;0.55;0.50;;;;;;;19.15;39.69;100604.63;6272448;28;20049;-71
2023/05/09 11:11:25;;;;;;;1.77;0.73;;;;;;;19.99;38.27;100596.22;6273279;28;20052;-71
2023/05/09 11:14:32;;;;;;;7.85;0.82;;;;;;;19.89;40.22;100593.56;6281213;28;20048;-72
2023/05/09 11:17:37;;;;;;;1.00;0.80;;;;;;;19.28;39.85;100586.72;6247183;28;20160;-72
2023/05/09 11:20:48;;;;;;;3.22;0.93;;;;;;;18.84;41.70;100588.81;6264785;28;20060;-71
2023/05/09 11:23:49;;;;;;;0.80;0.80;;;;;;;19.52;43.11;100575.75;6271763;28;20051;-71
2023/05/09 11:26:53;;;;;;;0.88;0.63;;;;;;;20.04;39.74;100581.59;6283193;28;20052;-71
2023/05/09 11:29:58;;;;;;;1.48;0.77;;;;;;;21.13;41.70;100581.88;6280461;28;20048;-71
2023/05/09 11:32:59;;;;;;;1.10;0.80;;;;;;;20.73;40.10;100576.91;6271367;28;20080;-71
2023/05/09 11:36:23;;;;;;;1.30;0.60;;;;;;;20.19;38.40;100581.97;6278259;28;20048;-71
2023/05/09 11:39:24;;;;;;;1.27;0.88;;;;;;;19.51;39.75;100569.59;6297218;28;20383;-72
2023/05/09 11:42:27;;;;;;;1.13;0.90;;;;;;;18.69;39.20;100570.66;6290276;28;20055;-71
2023/05/09 11:45:31;;;;;;;1.48;1.00;;;;;;;19.66;41.32;100559.44;6263124;28;20106;-72
2023/05/09 11:48:41;;;;;;;1.15;1.00;;;;;;;20.86;38.08;100572.13;6259634;28;20045;-72
2023/05/09 11:51:44;;;;;;;2.10;1.00;;;;;;;21.73;38.13;100559.25;6260709;28;20110;-72
2023/05/09 11:54:44;;;;;;;1.73;0.70;;;;;;;22.22;41.29;100570.22;6260195;28;20041;-72
2023/05/09 11:57:50;;;;;;;1.07;0.93;;;;;;;21.10;37.51;100552.97;6258866;28;20316;-72
2023/05/09 12:00:51;;;;;;;1.35;0.90;;;;;;;21.11;36.91;100554.66;6259026;28;20128;-72
2023/05/09 12:03:52;;;;;;;0.87;0.63;;;;;;;20.66;37.06;100555.47;6269078;28;20060;-73
2023/05/09 12:06:53;;;;;;;0.80;0.70;;;;;;;19.62;36.23;100552.75;6257098;28;20049;-73
2023/05/09 12:09:53;;;;;;;0.97;0.63;;;;;;;19.06;38.62;100548.09;6262770;28;20056;-72
2023/05/09 12:12:55;;;;;;;1.03;0.77;;;;;;;18.90;41.03;100560.06;6270644;28;20088;-71
2023/05/09 12:16:02;;;;;;;0.55;0.50;;;;;;;18.75;41.38;100553.41;6277313;28;20052;-72
2023/05/09 12:19:03;;;;;;;1.88;0.88;;;;;;;19.96;38.52;100541.72;6287622;28;20047;-72
2023/05/09 12:22:05;;;;;;;1.65;0.65;;;;;;;20.91;40.09;100532.72;6277321;28;20063;-72
2023/05/09 12:25:09;;;;;;;2.10;0.82;;;;;;;20.89;37.47;100532.03;6286077;28;20063;-71
2023/05/09 12:28:10;;;;;;;0.80;0.77;;;;;;;19.91;37.54;100528.06;6274835;28;20466;-71
2023/05/09 12:31:11;;;;;;;2.37;0.60;;;;;;;19.75;37.21;100530.47;6290906;28;20139;-71
2023/05/09 12:34:15;;;;;;;2.50;0.75;;;;;;;20.89;37.75;100517.94;6293850;28;20078;-71
2023/05/09 12:37:17;;;;;;;1.02;0.60;;;;;;;20.59;37.57;100527.03;6295044;28;20094;-71
2023/05/09 12:40:18;;;;;;;0.70;0.60;;;;;;;19.98;38.20;100518.59;6289827;28;20056;-71
2023/05/09 12:43:19;;;;;;;1.17;0.53;;;;;;;19.74;39.40;100513.75;6280104;28;20064;-72
2023/05/09 12:46:20;;;;;;;0.93;0.70;;;;;;;19.40;39.08;100513.34;6289615;28;20407;-72
2023/05/09 12:49:22;;;;;;;1.05;0.75;;;;;;;19.21;37.90;100515.00;6296811;28;20169;-72
2023/05/09 12:52:23;;;;;;;0.60;0.60;;;;;;;19.66;37.76;100508.28;6275100;28;20048;-71
2023/05/09 12:55:24;;;;;;;1.77;0.80;;;;;;;19.31;36.97;100501.75;6294444;28;20426;-71
2023/05/09 12:58:28;;;;;;;0.90;0.60;;;;;;;19.13;36.29;100502.47;6295667;28;20090;-72
2023/05/09 13:01:29;;;;;;;0.55;0.45;;;;;;;18.99;36.54;100502.88;6294055;28;20143;-72
2023/05/09 13:04:30;;;;;;;0.90;0.70;;;;;;;19.15;37.19;100491.75;6283563;28;20094;-73
2023/05/09 13:07:44;;;;;;;0.57;0.45;;;;;;;19.92;37.71;100497.97;6270468;28;20049;-72
2023/05/09 13:10:45;;;;;;;0.68;0.50;;;;;;;19.79;38.28;100492.13;6270278;28;20509;-71
2023/05/09 13:13:46;;;;;;;0.50;0.50;;;;;;;21.16;36.65;100492.34;6269976;28;20086;-71
2023/05/09 13:16:47;;;;;;;1.40;0.60;;;;;;;20.69;35.41;100490.69;6263104;28;20051;-71
2023/05/09 13:19:47;;;;;;;0.63;0.57;;;;;;;20.10;36.39;100490.13;6246411;28;20084;-72
2023/05/09 13:22:49;;;;;;;0.50;0.50;;;;;;;19.88;37.87;100486.81;6291318;28;20372;-71
2023/05/09 13:25:50;;;;;;;7.55;0.85;;;;;;;19.70;37.05;100488.50;6274852;28;20049;-72
2023/05/09 13:28:51;;;;;;;0.50;0.40;;;;;;;19.55;37.59;100484.63;6271121;28;20053;-71
2023/05/09 13:31:52;;;;;;;1.73;0.53;;;;;;;19.55;36.92;100477.53;6274946;28;20056;-72
2023/05/09 13:34:52;;;;;;;0.77;0.63;;;;;;;19.56;40.17;100473.91;6294563;28;20052;-72
2023/05/09 13:37:53;;;;;;;1.80;0.70;;;;;;;19.57;39.73;100467.63;6279373;28;20045;-74
2023/05/09 13:40:54;;;;;;;0.40;0.40;;;;;;;19.48;38.38;100474.63;6282169;28;20052;-73
2023/05/09 13:43:54;;;;;;;1.33;0.67;;;;;;;20.16;36.69;100465.69;6293463;28;20048;-74
2023/05/09 13:46:59;;;;;;;0.40;0.40;;;;;;;19.91;36.68;100462.72;6270085;28;20136;-74
2023/05/09 13:49:59;;;;;;;1.20;0.60;;;;;;;19.38;36.63;100452.63;6268457;28;20114;-73
2023/05/09 13:53:02;;;;;;;1.77;0.77;;;;;;;19.91;38.11;100462.72;6280241;28;20510;-71
2023/05/09 13:56:05;;;;;;;0.50;0.50;;;;;;;19.63;36.62;100451.19;6282734;28;20496;-71
2023/05/09 13:59:06;;;;;;;3.03;0.88;;;;;;;19.65;39.10;100449.22;6268544;28;20076;-72
2023/05/09 14:02:09;;;;;;;3.20;0.90;;;;;;;19.06;39.29;100450.25;6269656;28;20107;-72
2023/05/09 14:05:10;;;;;;;1.00;0.70;;;;;;;18.76;39.53;100449.38;6269489;28;20049;-72
2023/05/09 14:08:11;;;;;;;0.73;0.70;;;;;;;18.82;40.97;100455.94;6268399;28;20068;-71
2023/05/09 14:11:11;;;;;;;4.70;0.80;;;;;;;18.65;40.96;100447.66;6269337;28;20064;-71
2023/05/09 14:14:15;;;;;;;0.75;0.65;;;;;;;18.75;39.77;100452.16;6271589;28;20379;-71